createdAt,value
2019-01-23T00:03:56.687Z,-5.40
2019-01-23T00:09:02.110Z,-5.40
2019-01-23T00:14:08.242Z,-5.40
2019-01-23T00:19:13.671Z,-5.50
2019-01-23T00:24:19.458Z,-5.40
2019-01-23T00:29:25.251Z,-5.40
2019-01-23T00:34:30.735Z,-5.30
2019-01-23T00:39:36.259Z,-5.30
2019-01-23T00:44:41.695Z,-5.30
2019-01-23T00:49:47.134Z,-5.40
2019-01-23T00:54:52.990Z,-5.40
2019-01-23T00:59:58.774Z,-5.40
2019-01-23T01:05:04.540Z,-5.40
2019-01-23T01:10:11.999Z,-5.50
2019-01-23T01:15:17.572Z,-5.40
2019-01-23T01:20:23.714Z,-5.50
2019-01-23T01:25:29.143Z,-5.40
2019-01-23T01:30:34.590Z,-5.30
2019-01-23T01:35:40.382Z,-5.30
2019-01-23T01:40:45.814Z,-5.20
2019-01-23T01:45:51.590Z,-5.30
2019-01-23T01:50:57.491Z,-5.30
2019-01-23T01:56:03.292Z,-5.40
2019-01-23T02:01:09.086Z,-5.30
2019-01-23T02:06:14.888Z,-5.40
2019-01-23T02:11:21.046Z,-5.30
2019-01-23T02:16:26.487Z,-5.40
2019-01-23T02:21:32.738Z,-5.50
2019-01-23T02:26:38.518Z,-5.60
2019-01-23T02:31:43.968Z,-5.60
2019-01-23T02:36:49.794Z,-5.60
2019-01-23T02:41:55.234Z,-5.70
2019-01-23T02:47:00.725Z,-5.70
2019-01-23T02:52:06.570Z,-5.90
2019-01-23T02:57:12.403Z,-5.90
2019-01-23T03:02:18.209Z,-5.90
2019-01-23T03:07:24.367Z,-5.80
2019-01-23T03:12:30.171Z,-5.70
2019-01-23T03:17:35.718Z,-5.70
2019-01-23T03:22:41.515Z,-5.90
2019-01-23T03:27:46.951Z,-6.10
2019-01-23T03:32:52.474Z,-6.10
2019-01-23T03:37:57.926Z,-6.20
2019-01-23T03:43:04.157Z,-6.30
2019-01-23T03:48:09.667Z,-6.40
2019-01-23T03:53:16.143Z,-6.50
2019-01-23T03:58:22.284Z,-6.50
2019-01-23T04:03:27.730Z,-6.60
2019-01-23T04:08:33.188Z,-6.60
2019-01-23T04:13:38.972Z,-6.50
2019-01-23T04:18:45.219Z,-6.60
2019-01-23T04:23:50.667Z,-6.60
2019-01-23T04:28:56.097Z,-6.80
2019-01-23T04:34:01.909Z,-6.70
2019-01-23T04:39:09.543Z,-6.60
2019-01-23T04:44:15.023Z,-6.70
2019-01-23T04:49:20.450Z,-6.60
2019-01-23T04:54:26.627Z,-6.70
2019-01-23T04:59:32.484Z,-6.60
2019-01-23T05:04:38.163Z,-6.40
2019-01-23T05:09:44.059Z,-6.30
2019-01-23T05:14:49.852Z,-6.30
2019-01-23T05:19:55.279Z,-6.40
2019-01-23T05:25:01.107Z,-6.50
2019-01-23T05:30:10.103Z,-6.50
2019-01-23T05:35:15.548Z,-6.50
2019-01-23T05:40:21.687Z,-6.50
2019-01-23T05:45:27.123Z,-6.50
2019-01-23T05:50:33.291Z,-6.30
2019-01-23T05:55:39.071Z,-6.20
2019-01-23T06:00:44.890Z,-6.20
2019-01-23T06:05:50.379Z,-6.30
2019-01-23T06:10:56.198Z,-6.10
2019-01-23T06:16:02.338Z,-6.00
2019-01-23T06:21:07.798Z,-6.10
2019-01-23T06:26:13.694Z,-6.00
2019-01-23T06:31:19.122Z,-6.10
2019-01-23T06:36:24.930Z,-6.20
2019-01-23T06:41:30.690Z,-6.10
2019-01-23T06:46:36.194Z,-6.00
2019-01-23T06:51:41.626Z,-6.00
2019-01-23T06:56:47.232Z,-5.90
2019-01-23T07:01:53.025Z,-5.80
2019-01-23T07:06:59.170Z,-5.80
2019-01-23T07:12:04.962Z,-6.00
2019-01-23T07:17:10.446Z,-5.90
2019-01-23T07:22:16.251Z,-5.90
2019-01-23T07:27:22.423Z,-5.80
2019-01-23T07:32:27.985Z,-5.90
2019-01-23T07:37:33.442Z,-5.90
2019-01-23T07:42:38.874Z,-5.90
2019-01-23T07:47:44.313Z,-5.60
2019-01-23T07:52:49.746Z,-5.50
2019-01-23T07:57:56.219Z,-5.50
2019-01-23T08:03:02.082Z,-5.70
2019-01-23T08:08:08.310Z,-5.70
2019-01-23T08:13:13.823Z,-5.40
2019-01-23T08:18:19.584Z,-5.40
2019-01-23T08:23:25.801Z,-5.40
2019-01-23T08:28:31.576Z,-5.40
2019-01-23T08:33:37.146Z,-5.40
2019-01-23T08:38:43.278Z,-5.30
2019-01-23T08:43:48.722Z,-5.20
2019-01-23T08:48:54.533Z,-5.20
2019-01-23T08:54:00.647Z,-5.10
2019-01-23T08:59:06.086Z,-5.00
2019-01-23T09:04:11.523Z,-4.90
2019-01-23T09:09:17.014Z,-4.70
2019-01-23T09:14:22.455Z,-4.70
2019-01-23T09:19:27.942Z,-4.80
2019-01-23T09:24:33.379Z,-4.50
2019-01-23T09:29:38.811Z,-4.40
2019-01-23T09:34:59.891Z,-4.70
2019-01-23T09:40:51.024Z,-4.50
2019-01-23T09:46:08.958Z,-4.70
2019-01-23T09:51:45.012Z,-4.90
2019-01-23T09:56:50.840Z,-4.90
2019-01-23T10:01:56.615Z,-4.50
2019-01-23T10:07:02.414Z,-4.60
2019-01-23T10:12:08.218Z,-4.50
2019-01-23T10:17:13.819Z,-4.90
2019-01-23T10:22:19.947Z,-4.90
2019-01-23T10:27:25.753Z,-4.80
2019-01-23T10:32:31.208Z,-4.60
2019-01-23T10:37:36.764Z,-4.80
2019-01-23T10:42:42.536Z,-4.60
2019-01-23T10:47:48.727Z,-4.70
2019-01-23T10:52:54.154Z,-4.90
2019-01-23T10:57:59.952Z,-4.90
2019-01-23T11:03:09.983Z,-4.80
2019-01-23T11:08:10.875Z,-4.30
2019-01-23T11:13:16.671Z,-4.50
2019-01-23T11:18:23.158Z,-4.60
2019-01-23T11:23:28.590Z,-4.70
2019-01-23T11:28:34.517Z,-4.80
2019-01-23T11:33:40.054Z,-4.70
2019-01-23T11:38:46.007Z,-4.80
2019-01-23T11:43:51.911Z,-4.70
2019-01-23T11:48:57.426Z,-5.00
2019-01-23T11:54:02.895Z,-5.10
2019-01-23T11:59:09.050Z,-5.10
2019-01-23T12:04:14.822Z,-5.00
2019-01-23T12:09:20.321Z,-4.80
2019-01-23T12:14:25.978Z,-4.80
2019-01-23T12:19:32.832Z,-4.70
2019-01-23T12:24:38.306Z,-4.80
2019-01-23T12:29:43.815Z,-4.70
2019-01-23T12:34:49.664Z,-4.90
2019-01-23T12:39:55.438Z,-5.10
2019-01-23T12:45:01.126Z,-5.00
2019-01-23T12:50:08.958Z,-4.90
2019-01-23T12:55:14.572Z,-4.90
2019-01-23T13:00:23.550Z,-5.00
2019-01-23T13:05:29.079Z,-4.70
2019-01-23T13:10:36.900Z,-4.90
2019-01-23T13:15:43.347Z,-4.70
2019-01-23T13:20:48.783Z,-4.50
2019-01-23T13:25:54.598Z,-4.80
2019-01-23T13:31:00.486Z,-4.60
2019-01-23T13:36:07.622Z,-4.50
2019-01-23T13:41:13.087Z,-4.70
2019-01-23T13:46:19.220Z,-4.70
2019-01-23T13:51:25.179Z,-4.80
2019-01-23T13:56:30.675Z,-4.80
2019-01-23T14:01:36.278Z,-4.80
2019-01-23T14:06:41.759Z,-4.90
2019-01-23T14:11:47.872Z,-4.90
2019-01-23T14:16:54.132Z,-4.80
2019-01-23T14:21:59.865Z,-4.70
2019-01-23T14:27:05.703Z,-4.60
2019-01-23T14:32:11.226Z,-4.90
2019-01-23T14:37:16.995Z,-4.80
2019-01-23T14:42:22.486Z,-4.70
2019-01-23T14:47:27.922Z,-4.70
2019-01-23T14:52:34.048Z,-4.50
2019-01-23T14:57:39.946Z,-4.50
2019-01-23T15:02:45.570Z,-4.50
2019-01-23T15:07:51.721Z,-4.70
2019-01-23T15:12:57.262Z,-4.60
2019-01-23T15:18:02.828Z,-4.70
2019-01-23T15:23:08.762Z,-4.70
2019-01-23T15:28:14.207Z,-4.70
2019-01-23T15:33:20.007Z,-4.80
2019-01-23T15:38:26.267Z,-4.70
2019-01-23T15:43:32.483Z,-4.80
2019-01-23T15:48:39.269Z,-4.60
2019-01-23T15:53:43.900Z,-4.70
2019-01-23T15:58:49.419Z,-4.60
2019-01-23T16:03:54.936Z,-4.60
2019-01-23T16:09:00.853Z,-4.60
2019-01-23T16:14:07.615Z,-4.60
2019-01-23T16:19:13.820Z,-4.60
2019-01-23T16:24:19.638Z,-4.60
2019-01-23T16:29:25.887Z,-4.70
2019-01-23T16:34:31.673Z,-5.00
2019-01-23T16:39:37.312Z,-4.90
2019-01-23T16:44:42.870Z,-4.80
2019-01-23T16:49:48.683Z,-4.90
2019-01-23T16:54:54.215Z,-4.70
2019-01-23T16:59:59.646Z,-4.80
2019-01-23T17:05:08.131Z,-4.70
2019-01-23T17:10:17.151Z,-4.70
2019-01-23T17:15:22.771Z,-4.70
2019-01-23T17:20:34.858Z,-4.50
2019-01-23T17:25:40.410Z,-4.60
2019-01-23T17:30:45.991Z,-4.60
2019-01-23T17:35:51.826Z,-4.40
2019-01-23T17:40:58.311Z,-4.60
2019-01-23T17:46:04.121Z,-4.60
2019-01-23T17:51:10.264Z,-4.70
2019-01-23T17:56:16.183Z,-4.40
2019-01-23T18:01:21.699Z,-4.40
2019-01-23T18:06:27.114Z,-4.40
2019-01-23T18:11:32.977Z,-4.40
2019-01-23T18:16:38.802Z,-4.50
2019-01-23T18:21:44.251Z,-4.50
2019-01-23T18:26:49.786Z,-4.40
2019-01-23T18:32:02.576Z,-4.40
2019-01-23T18:37:53.548Z,-4.40
2019-01-23T18:43:16.500Z,-4.40
2019-01-23T18:48:49.244Z,-4.50
2019-01-23T18:53:55.031Z,-4.50
2019-01-23T18:59:01.562Z,-4.50
2019-01-23T19:04:07.031Z,-4.50
2019-01-23T19:09:12.814Z,-4.30
2019-01-23T19:14:24.269Z,-4.30
2019-01-23T19:19:23.726Z,-4.30
2019-01-23T19:24:29.851Z,-4.20
2019-01-23T19:29:37.071Z,-4.20
2019-01-23T19:34:42.919Z,-4.20
2019-01-23T19:39:48.988Z,-4.10
2019-01-23T19:44:54.821Z,-4.20
2019-01-23T19:50:00.307Z,-4.00
2019-01-23T19:55:07.574Z,-4.00
2019-01-23T20:00:18.654Z,-3.90
2019-01-23T20:05:28.263Z,-3.90
2019-01-23T20:10:34.314Z,-3.90
2019-01-23T20:15:39.858Z,-3.70
2019-01-23T20:20:45.300Z,-3.70
2019-01-23T20:25:51.133Z,-3.80
2019-01-23T20:30:56.572Z,-3.70
2019-01-23T20:36:02.099Z,-3.60
2019-01-23T20:41:08.250Z,-3.70
2019-01-23T20:46:13.747Z,-3.60
2019-01-23T20:51:19.360Z,-3.50
2019-01-23T20:56:25.196Z,-3.50
2019-01-23T21:01:30.747Z,-3.50
2019-01-23T21:06:36.662Z,-3.50
2019-01-23T21:11:42.177Z,-3.50
2019-01-23T21:16:49.801Z,-3.40
2019-01-23T21:21:55.339Z,-3.40
2019-01-23T21:27:01.199Z,-3.40
2019-01-23T21:32:06.677Z,-3.30
2019-01-23T21:37:12.826Z,-3.30
2019-01-23T21:42:18.304Z,-3.30
2019-01-23T21:47:24.120Z,-3.30
2019-01-23T21:52:30.023Z,-3.20
2019-01-23T21:57:35.867Z,-3.20
2019-01-23T22:02:42.102Z,-3.10
2019-01-23T22:07:47.633Z,-3.10
2019-01-23T22:12:53.445Z,-3.10
2019-01-23T22:17:59.335Z,-3.00
2019-01-23T22:23:04.876Z,-3.00
2019-01-23T22:28:10.987Z,-3.00
2019-01-23T22:33:16.486Z,-3.00
2019-01-23T22:38:22.248Z,-3.00
2019-01-23T22:43:27.725Z,-3.00
2019-01-23T22:48:33.174Z,-2.90
2019-01-23T22:53:38.622Z,-3.00
2019-01-23T22:58:44.762Z,-2.90
2019-01-23T23:03:50.518Z,-2.90
2019-01-23T23:08:56.275Z,-2.90
2019-01-23T23:14:02.162Z,-2.90
2019-01-23T23:19:07.603Z,-3.00
2019-01-23T23:24:13.440Z,-2.90
2019-01-23T23:29:19.583Z,-2.80
2019-01-23T23:34:25.050Z,-2.90
2019-01-23T23:39:30.631Z,-3.00
2019-01-23T23:44:36.142Z,-3.00
2019-01-23T23:49:42.010Z,-2.90
2019-01-23T23:54:47.762Z,-2.80
2019-01-23T23:59:53.378Z,-2.90
